Time;durP1;ratioP1;P1;durP2;ratioP2;P2;SDS_P1;SDS_P2;PMS_P1;PMS_P2;Temp;Humidity;BMP_temperature;BMP_pressure;BME280_temperature;BME280_humidity;BME280_pressure;Samples;Min_cycle;Max_cycle;Signal;HPM_P1;HPM_P2
2023/03/08 00:00:09;;;;;;;;;;;3.50;99.90;;;;;;4944498;28;20464;-75
2023/03/08 00:02:37;;;;;;;;;;;3.50;99.90;;;;;;4942786;28;19926;-75
2023/03/08 00:05:05;;;;;;;;;;;3.50;99.90;;;;;;4941492;28;20428;-75
2023/03/08 00:07:33;;;;;;;;;;;3.50;99.90;;;;;;4945472;28;19930;-75
2023/03/08 00:10:00;;;;;;;;;;;3.50;99.90;;;;;;4945374;28;20411;-75
2023/03/08 00:12:28;;;;;;;;;;;3.50;99.90;;;;;;4941983;28;20025;-76
2023/03/08 00:14:55;;;;;;;;;;;3.40;99.90;;;;;;4944323;28;19934;-74
2023/03/08 00:17:23;;;;;;;;;;;3.40;99.90;;;;;;4945766;28;19933;-75
2023/03/08 00:19:51;;;;;;;;;;;3.50;99.90;;;;;;4955999;28;19926;-75
2023/03/08 00:22:17;;;;;;;;;;;3.50;99.90;;;;;;4945195;28;20320;-76
2023/03/08 00:24:46;;;;;;;;;;;3.50;99.90;;;;;;4943070;28;20009;-74
2023/03/08 00:27:12;;;;;;;;;;;3.40;99.90;;;;;;4959181;28;19970;-75
2023/03/08 00:29:40;;;;;;;;;;;3.50;99.90;;;;;;4959226;28;19927;-75
2023/03/08 00:32:07;;;;;;;;;;;3.40;99.90;;;;;;4943224;28;20013;-75
2023/03/08 00:34:34;;;;;;;;;;;3.40;99.90;;;;;;4960917;28;19976;-75
2023/03/08 00:37:01;;;;;;;;;;;3.40;99.90;;;;;;4941920;28;19933;-75
2023/03/08 00:39:28;;;;;;;;;;;3.40;99.90;;;;;;4960386;28;20363;-75
2023/03/08 00:41:56;;;;;;;;;;;3.40;99.90;;;;;;4942293;28;19926;-75
2023/03/08 00:44:23;;;;;;;;;;;3.40;99.90;;;;;;4945385;28;20596;-74
2023/03/08 00:46:51;;;;;;;;;;;3.40;99.90;;;;;;4940304;28;19934;-74
2023/03/08 00:49:18;;;;;;;;;;;3.40;99.90;;;;;;4943751;28;19930;-75
2023/03/08 00:51:44;;;;;;;;;;;3.40;99.90;;;;;;4958170;28;19941;-75
2023/03/08 00:54:11;;;;;;;;;;;3.40;99.90;;;;;;4943168;28;19965;-75
2023/03/08 00:56:38;;;;;;;;;;;3.40;99.90;;;;;;4946097;28;19941;-74
2023/03/08 00:59:06;;;;;;;;;;;3.40;99.90;;;;;;4958840;28;19935;-75
2023/03/08 01:01:34;;;;;;;;;;;3.40;99.90;;;;;;4956856;28;19941;-74
2023/03/08 01:04:01;;;;;;;;;;;3.40;99.90;;;;;;4946608;28;19926;-75
2023/03/08 01:06:28;;;;;;;;;;;3.40;99.90;;;;;;4952698;28;19953;-75
2023/03/08 01:08:55;;;;;;;;;;;3.30;99.90;;;;;;4959618;28;20460;-77
2023/03/08 01:11:24;;;;;;;;;;;3.40;99.90;;;;;;4956405;28;19926;-75
2023/03/08 01:13:51;;;;;;;;;;;3.30;99.90;;;;;;4961531;28;19931;-75
2023/03/08 01:16:21;;;;;;;;;;;3.30;99.90;;;;;;4960422;28;19930;-75
2023/03/08 01:18:48;;;;;;;;;;;3.30;99.90;;;;;;4937671;28;19983;-74
2023/03/08 01:21:15;;;;;;;;;;;3.30;99.90;;;;;;4950910;28;19932;-75
2023/03/08 01:23:42;;;;;;;;;;;3.30;99.90;;;;;;4946460;28;19955;-75
2023/03/08 01:26:11;;;;;;;;;;;3.30;99.90;;;;;;4943466;28;19978;-76
2023/03/08 01:28:38;;;;;;;;;;;3.30;99.90;;;;;;4957282;28;19930;-75
2023/03/08 01:31:07;;;;;;;;;;;3.30;99.90;;;;;;4955018;28;19942;-75
2023/03/08 01:33:37;;;;;;;;;;;3.30;99.90;;;;;;4953901;28;20377;-75
2023/03/08 01:36:04;;;;;;;;;;;3.30;99.90;;;;;;4937777;28;21399;-75
2023/03/08 01:38:30;;;;;;;;;;;3.30;99.90;;;;;;4940474;28;19927;-74
2023/03/08 01:40:59;;;;;;;;;;;3.30;99.90;;;;;;4951908;28;20452;-75
2023/03/08 01:43:28;;;;;;;;;;;3.30;99.90;;;;;;4939657;28;20015;-75
2023/03/08 01:46:09;;;;;;;;;;;3.30;99.90;;;;;;4936276;28;19997;-75
2023/03/08 01:48:40;;;;;;;;;;;3.30;99.90;;;;;;4924876;28;19939;-75
2023/03/08 01:51:12;;;;;;;;;;;3.30;99.90;;;;;;4953421;28;19999;-75
2023/03/08 01:53:40;;;;;;;;;;;3.30;99.90;;;;;;4955999;28;19934;-74
2023/03/08 01:56:10;;;;;;;;;;;3.30;99.90;;;;;;4941263;28;19982;-74
2023/03/08 01:58:38;;;;;;;;;;;3.20;99.90;;;;;;4946558;28;20396;-75
2023/03/08 02:01:05;;;;;;;;;;;3.20;99.90;;;;;;4947832;28;19989;-75
2023/03/08 02:03:32;;;;;;;;;;;3.20;99.90;;;;;;4942519;28;20034;-75
2023/03/08 02:06:00;;;;;;;;;;;3.20;99.90;;;;;;4949474;28;19941;-76
2023/03/08 02:08:27;;;;;;;;;;;3.20;99.90;;;;;;4956669;28;19943;-75
2023/03/08 02:10:54;;;;;;;;;;;3.20;99.90;;;;;;4937003;28;19926;-75
2023/03/08 02:13:21;;;;;;;;;;;3.20;99.90;;;;;;4938822;28;20468;-74
2023/03/08 02:15:49;;;;;;;;;;;3.20;99.90;;;;;;4938288;28;19933;-74
2023/03/08 02:18:17;;;;;;;;;;;3.20;99.90;;;;;;4941388;28;19930;-75
2023/03/08 02:20:44;;;;;;;;;;;3.20;99.90;;;;;;4934438;28;19931;-75
2023/03/08 02:23:13;;;;;;;;;;;3.20;99.90;;;;;;4942500;28;20302;-76
2023/03/08 02:25:42;;;;;;;;;;;3.20;99.90;;;;;;4941217;28;20624;-75
2023/03/08 02:28:09;;;;;;;;;;;3.10;99.90;;;;;;4941062;28;19962;-76
2023/03/08 02:30:37;;;;;;;;;;;3.20;99.90;;;;;;4950535;28;19930;-75
2023/03/08 02:33:04;;;;;;;;;;;3.10;99.90;;;;;;4954606;28;20348;-76
2023/03/08 02:35:31;;;;;;;;;;;3.20;99.90;;;;;;4940452;28;19981;-75
2023/03/08 02:37:57;;;;;;;;;;;3.10;99.90;;;;;;4938829;28;19934;-76
2023/03/08 02:40:26;;;;;;;;;;;3.10;99.90;;;;;;4979923;28;19958;-76
2023/03/08 02:42:54;;;;;;;;;;;3.10;99.90;;;;;;4958772;28;19965;-75
2023/03/08 02:45:21;;;;;;;;;;;3.10;99.90;;;;;;4937042;28;20415;-74
2023/03/08 02:47:48;;;;;;;;;;;3.10;99.90;;;;;;4941953;28;19981;-75
2023/03/08 02:50:16;;;;;;;;;;;3.10;99.90;;;;;;4952819;28;19926;-74
2023/03/08 02:52:44;;;;;;;;;;;3.10;99.90;;;;;;4940841;28;20014;-75
2023/03/08 02:55:11;;;;;;;;;;;3.10;99.90;;;;;;4939421;28;19941;-75
2023/03/08 02:57:39;;;;;;;;;;;3.10;99.90;;;;;;4942395;28;19954;-75
2023/03/08 03:00:07;;;;;;;;;;;3.10;99.90;;;;;;4955441;28;19961;-74
2023/03/08 03:02:34;;;;;;;;;;;3.10;99.90;;;;;;4954607;28;19930;-75
2023/03/08 03:05:03;;;;;;;;;;;3.10;99.90;;;;;;4941129;28;20022;-74
2023/03/08 03:07:30;;;;;;;;;;;3.10;99.90;;;;;;4963523;28;19930;-75
2023/03/08 03:09:57;;;;;;;;;;;3.10;99.90;;;;;;4958138;28;19934;-75
2023/03/08 03:12:24;;;;;;;;;;;3.00;99.90;;;;;;4936605;28;19930;-75
2023/03/08 03:14:52;;;;;;;;;;;3.00;99.90;;;;;;4934174;28;20399;-76
2023/03/08 03:17:19;;;;;;;;;;;3.00;99.90;;;;;;4941654;28;19934;-74
2023/03/08 03:19:46;;;;;;;;;;;3.00;99.90;;;;;;4940101;28;19935;-74
2023/03/08 03:22:13;;;;;;;;;;;3.00;99.90;;;;;;4946471;28;19933;-75
2023/03/08 03:24:40;;;;;;;;;;;3.00;99.90;;;;;;4958271;28;19926;-75
2023/03/08 03:27:07;;;;;;;;;;;3.00;99.90;;;;;;4941633;28;20368;-75
2023/03/08 03:29:37;;;;;;;;;;;3.00;99.90;;;;;;4946058;28;20313;-75
2023/03/08 03:32:13;;;;;;;;;;;3.00;99.90;;;;;;4955768;28;20495;-74
2023/03/08 03:34:40;;;;;;;;;;;2.90;99.90;;;;;;4945208;28;19932;-74
2023/03/08 03:37:07;;;;;;;;;;;3.00;99.90;;;;;;4943330;28;19931;-74
2023/03/08 03:39:36;;;;;;;;;;;3.00;99.90;;;;;;4962390;28;20456;-74
2023/03/08 03:42:05;;;;;;;;;;;3.00;99.90;;;;;;4956654;28;20017;-75
2023/03/08 03:44:33;;;;;;;;;;;3.00;99.90;;;;;;4958899;28;19934;-74
2023/03/08 03:47:00;;;;;;;;;;;2.90;99.90;;;;;;4944504;28;19927;-74
2023/03/08 03:49:30;;;;;;;;;;;3.00;99.90;;;;;;4938488;28;20483;-74
2023/03/08 03:51:57;;;;;;;;;;;3.00;99.90;;;;;;4940111;28;19931;-74
2023/03/08 03:54:29;;;;;;;;;;;2.90;99.90;;;;;;4957670;28;20312;-74
2023/03/08 03:56:59;;;;;;;;;;;3.00;99.90;;;;;;4957002;28;20030;-75
2023/03/08 03:59:29;;;;;;;;;;;2.90;99.90;;;;;;4941533;28;20017;-75
2023/03/08 04:01:56;;;;;;;;;;;2.90;99.90;;;;;;4954143;28;19935;-75
2023/03/08 04:04:33;;;;;;;;;;;2.90;99.90;;;;;;4947206;28;19978;-75
2023/03/08 04:07:01;;;;;;;;;;;2.90;99.90;;;;;;4957091;28;19931;-75
2023/03/08 04:09:33;;;;;;;;;;;2.90;99.90;;;;;;4944271;28;20073;-75
2023/03/08 04:12:07;;;;;;;;;;;2.90;99.90;;;;;;4943729;28;19934;-75
2023/03/08 04:14:35;;;;;;;;;;;2.90;99.90;;;;;;4943658;28;19927;-75
2023/03/08 04:17:03;;;;;;;;;;;2.90;99.90;;;;;;4954637;28;19941;-74
2023/03/08 04:19:39;;;;;;;;;;;2.90;99.90;;;;;;4941047;28;19969;-75
2023/03/08 04:22:07;;;;;;;;;;;2.90;99.90;;;;;;4935136;28;19986;-76
2023/03/08 04:24:42;;;;;;;;;;;2.90;99.90;;;;;;4960672;28;20056;-75
2023/03/08 04:27:14;;;;;;;;;;;2.90;99.90;;;;;;4937133;28;20021;-75
2023/03/08 04:29:41;;;;;;;;;;;2.90;99.90;;;;;;4952957;28;19927;-74
2023/03/08 04:32:08;;;;;;;;;;;2.90;99.90;;;;;;4957320;28;19966;-75
2023/03/08 04:34:47;;;;;;;;;;;2.90;99.90;;;;;;4944914;28;19938;-74
2023/03/08 04:37:17;;;;;;;;;;;2.90;99.90;;;;;;4942002;28;20901;-74
2023/03/08 04:39:49;;;;;;;;;;;2.90;99.90;;;;;;4944907;28;19973;-74
2023/03/08 04:42:17;;;;;;;;;;;2.80;99.90;;;;;;4942191;28;20428;-75
2023/03/08 04:44:45;;;;;;;;;;;2.90;99.90;;;;;;4959073;28;19934;-74
2023/03/08 04:47:13;;;;;;;;;;;2.80;99.90;;;;;;4962038;28;19927;-74
2023/03/08 04:49:44;;;;;;;;;;;2.80;99.90;;;;;;4941646;28;19926;-74
2023/03/08 04:52:14;;;;;;;;;;;2.80;99.90;;;;;;4945604;28;19927;-74
2023/03/08 04:54:42;;;;;;;;;;;2.80;99.90;;;;;;4942496;28;20440;-74
2023/03/08 04:57:22;;;;;;;;;;;2.80;99.90;;;;;;4958859;28;20160;-74
2023/03/08 04:59:51;;;;;;;;;;;2.80;99.90;;;;;;4961947;28;19926;-74
2023/03/08 05:02:18;;;;;;;;;;;2.80;99.90;;;;;;4954957;28;19970;-75
2023/03/08 05:04:46;;;;;;;;;;;2.80;99.90;;;;;;4937597;28;19962;-74
2023/03/08 05:07:14;;;;;;;;;;;2.80;99.90;;;;;;4950978;28;20018;-75
2023/03/08 05:09:42;;;;;;;;;;;2.80;99.90;;;;;;4953085;28;20365;-75
2023/03/08 05:12:09;;;;;;;;;;;2.80;99.90;;;;;;4939997;28;19960;-75
2023/03/08 05:14:54;;;;;;;;;;;2.80;99.90;;;;;;4935969;28;19958;-73
2023/03/08 05:17:21;;;;;;;;;;;2.80;99.90;;;;;;4948966;28;20471;-74
2023/03/08 05:19:49;;;;;;;;;;;2.80;99.90;;;;;;4937665;28;19935;-75
2023/03/08 05:22:21;;;;;;;;;;;2.80;99.90;;;;;;4940623;28;19927;-76
2023/03/08 05:24:51;;;;;;;;;;;2.80;99.90;;;;;;4942081;28;19941;-76
2023/03/08 05:27:18;;;;;;;;;;;2.80;99.90;;;;;;4954050;28;19965;-75
2023/03/08 05:29:46;;;;;;;;;;;2.70;99.90;;;;;;4936979;28;20013;-73
2023/03/08 05:32:14;;;;;;;;;;;2.80;99.90;;;;;;4951220;28;19935;-73
2023/03/08 05:34:41;;;;;;;;;;;2.70;99.90;;;;;;4957422;28;20015;-74
2023/03/08 05:37:12;;;;;;;;;;;2.70;99.90;;;;;;4935607;28;19934;-76
2023/03/08 05:39:42;;;;;;;;;;;2.80;99.90;;;;;;4938772;28;19931;-74
2023/03/08 05:42:17;;;;;;;;;;;2.70;99.90;;;;;;4948318;28;19941;-75
2023/03/08 05:44:45;;;;;;;;;;;2.70;99.90;;;;;;4953025;28;19926;-77
2023/03/08 05:47:15;;;;;;;;;;;2.70;99.90;;;;;;4940354;28;19934;-74
2023/03/08 05:49:42;;;;;;;;;;;2.70;99.90;;;;;;4955077;28;20541;-75
2023/03/08 05:52:09;;;;;;;;;;;2.70;99.90;;;;;;4938701;28;19938;-74
2023/03/08 05:54:38;;;;;;;;;;;2.70;99.90;;;;;;4937994;28;21542;-74
2023/03/08 05:57:11;;;;;;;;;;;2.70;99.90;;;;;;4950538;28;19935;-74
2023/03/08 05:59:38;;;;;;;;;;;2.80;99.90;;;;;;4954028;28;19945;-74
2023/03/08 06:02:07;;;;;;;;;;;2.80;99.90;;;;;;4935945;28;20025;-75
2023/03/08 06:04:41;;;;;;;;;;;2.80;99.90;;;;;;4947100;28;19926;-75
2023/03/08 06:07:10;;;;;;;;;;;2.80;99.90;;;;;;4934544;28;19934;-74
2023/03/08 06:09:41;;;;;;;;;;;2.80;99.90;;;;;;4954270;28;20025;-73
2023/03/08 06:12:14;;;;;;;;;;;2.80;99.90;;;;;;4943147;28;20044;-73
2023/03/08 06:14:40;;;;;;;;;;;2.80;99.90;;;;;;4968463;28;19937;-73
2023/03/08 06:17:07;;;;;;;;;;;2.80;99.90;;;;;;4953626;28;19931;-73
2023/03/08 06:19:37;;;;;;;;;;;2.80;99.90;;;;;;4952667;28;19930;-73
2023/03/08 06:22:04;;;;;;;;;;;2.80;99.90;;;;;;4942060;28;19942;-74
2023/03/08 06:24:31;;;;;;;;;;;2.80;99.90;;;;;;4957331;28;19934;-74
2023/03/08 06:27:01;;;;;;;;;;;2.80;99.90;;;;;;4939101;28;20396;-74
2023/03/08 06:29:29;;;;;;;;;;;2.80;99.90;;;;;;4943486;28;20305;-74
2023/03/08 06:31:56;;;;;;;;;;;2.80;99.90;;;;;;4956128;28;19959;-74
2023/03/08 06:34:23;;;;;;;;;;;2.80;99.90;;;;;;4942056;28;19930;-73
2023/03/08 06:36:55;;;;;;;;;;;2.80;99.90;;;;;;4966171;28;19926;-72
2023/03/08 06:39:23;;;;;;;;;;;2.80;99.90;;;;;;4946461;28;19930;-73
2023/03/08 06:41:49;;;;;;;;;;;2.80;99.90;;;;;;4961097;28;20025;-73
2023/03/08 06:44:16;;;;;;;;;;;2.80;99.90;;;;;;4960075;28;19927;-72
2023/03/08 06:46:44;;;;;;;;;;;2.70;99.90;;;;;;4937522;28;19942;-73
2023/03/08 06:49:11;;;;;;;;;;;2.80;99.90;;;;;;4936984;28;19961;-73
2023/03/08 06:51:38;;;;;;;;;;;2.80;99.90;;;;;;4940927;28;19934;-73
2023/03/08 06:54:05;;;;;;;;;;;2.80;99.90;;;;;;4952544;28;20024;-73
2023/03/08 06:56:32;;;;;;;;;;;2.70;99.90;;;;;;4940569;28;19973;-73
2023/03/08 06:59:00;;;;;;;;;;;2.70;99.90;;;;;;4957145;28;20174;-74
2023/03/08 07:01:26;;;;;;;;;;;2.70;99.90;;;;;;4938765;28;19981;-74
2023/03/08 07:03:54;;;;;;;;;;;2.70;99.90;;;;;;4936156;28;19965;-73
2023/03/08 07:06:22;;;;;;;;;;;2.80;99.90;;;;;;4936935;28;20005;-73
2023/03/08 07:08:49;;;;;;;;;;;2.80;99.90;;;;;;4935820;28;19934;-73
2023/03/08 07:11:15;;;;;;;;;;;2.80;99.90;;;;;;4941333;28;20311;-74
2023/03/08 07:13:43;;;;;;;;;;;2.80;99.90;;;;;;4931309;28;19956;-73
2023/03/08 07:16:10;;;;;;;;;;;2.70;99.90;;;;;;4947355;28;19931;-73
2023/03/08 07:18:37;;;;;;;;;;;2.70;99.90;;;;;;4947946;28;20388;-73
2023/03/08 07:21:06;;;;;;;;;;;2.70;99.90;;;;;;4946555;28;19926;-73
2023/03/08 07:23:32;;;;;;;;;;;2.70;99.90;;;;;;4949475;28;20001;-73
2023/03/08 07:25:59;;;;;;;;;;;2.70;99.90;;;;;;4951626;28;20316;-73
2023/03/08 07:28:26;;;;;;;;;;;2.70;99.90;;;;;;4950242;28;20389;-72
2023/03/08 07:30:53;;;;;;;;;;;2.70;99.90;;;;;;4951391;28;19935;-74
2023/03/08 07:33:20;;;;;;;;;;;2.70;99.90;;;;;;4951768;28;19974;-72
2023/03/08 07:35:47;;;;;;;;;;;2.70;99.90;;;;;;4950216;28;19926;-73
2023/03/08 07:38:15;;;;;;;;;;;2.70;99.90;;;;;;4940381;28;20036;-74
2023/03/08 07:40:42;;;;;;;;;;;2.70;99.90;;;;;;4949305;28;19981;-71
2023/03/08 07:43:09;;;;;;;;;;;2.70;99.90;;;;;;4943372;28;19938;-73
2023/03/08 07:45:55;;;;;;;;;;;2.70;99.90;;;;;;4941411;28;20992;-73
2023/03/08 07:48:21;;;;;;;;;;;2.70;99.90;;;;;;4946295;28;19930;-73
2023/03/08 07:50:48;;;;;;;;;;;2.70;99.90;;;;;;4943354;28;19931;-74
2023/03/08 07:53:16;;;;;;;;;;;2.70;99.90;;;;;;4948440;28;19930;-73
2023/03/08 07:55:43;;;;;;;;;;;2.70;99.90;;;;;;4936541;28;19927;-73
2023/03/08 07:58:10;;;;;;;;;;;2.70;99.90;;;;;;4937195;28;20022;-74
2023/03/08 08:00:37;;;;;;;;;;;2.80;99.90;;;;;;4961868;28;19949;-73
2023/03/08 08:03:04;;;;;;;;;;;2.80;99.90;;;;;;4940901;28;19927;-73
2023/03/08 08:05:31;;;;;;;;;;;2.80;99.90;;;;;;4947216;28;19973;-74
2023/03/08 08:07:57;;;;;;;;;;;2.80;99.90;;;;;;4941468;28;20530;-73
2023/03/08 08:10:25;;;;;;;;;;;2.80;99.90;;;;;;4940920;28;20401;-73
2023/03/08 08:12:52;;;;;;;;;;;2.80;99.90;;;;;;4942550;28;20304;-73
2023/03/08 08:15:19;;;;;;;;;;;2.80;99.90;;;;;;4942050;28;20025;-74
2023/03/08 08:17:46;;;;;;;;;;;2.80;99.90;;;;;;4940761;28;20864;-73
2023/03/08 08:20:13;;;;;;;;;;;2.80;99.90;;;;;;4945952;28;20025;-73
2023/03/08 08:22:40;;;;;;;;;;;2.80;99.90;;;;;;4940153;28;19935;-74
2023/03/08 08:25:07;;;;;;;;;;;2.80;99.90;;;;;;4956756;28;20042;-73
2023/03/08 08:27:35;;;;;;;;;;;2.80;99.90;;;;;;4945530;28;21372;-73
2023/03/08 08:30:02;;;;;;;;;;;2.90;99.90;;;;;;4947214;28;20005;-73
2023/03/08 08:32:29;;;;;;;;;;;2.90;99.90;;;;;;4964511;28;19934;-73
2023/03/08 08:34:56;;;;;;;;;;;2.90;99.90;;;;;;4950392;28;19965;-73
2023/03/08 08:37:23;;;;;;;;;;;2.90;99.90;;;;;;4950585;28;20382;-72
2023/03/08 08:39:50;;;;;;;;;;;2.90;99.90;;;;;;4948234;28;19934;-73
2023/03/08 08:42:16;;;;;;;;;;;2.90;99.90;;;;;;4946909;28;20005;-74
2023/03/08 08:44:44;;;;;;;;;;;2.90;99.90;;;;;;4949428;28;19957;-74
2023/03/08 08:47:11;;;;;;;;;;;2.90;99.90;;;;;;4949878;28;20001;-74
2023/03/08 08:49:38;;;;;;;;;;;2.90;99.90;;;;;;4950531;28;20000;-74
2023/03/08 08:52:05;;;;;;;;;;;2.90;99.90;;;;;;4946739;28;19973;-74
2023/03/08 08:54:33;;;;;;;;;;;2.90;99.90;;;;;;4950743;28;19966;-74
2023/03/08 08:56:59;;;;;;;;;;;2.90;99.90;;;;;;4946570;28;19937;-74
2023/03/08 08:59:26;;;;;;;;;;;2.90;99.90;;;;;;4942983;28;20408;-74
2023/03/08 09:01:54;;;;;;;;;;;2.90;99.90;;;;;;4942267;28;19927;-74
2023/03/08 09:04:21;;;;;;;;;;;2.90;99.90;;;;;;4946425;28;20014;-74
2023/03/08 09:06:48;;;;;;;;;;;2.90;99.90;;;;;;4944452;28;19950;-74
2023/03/08 09:09:15;;;;;;;;;;;2.90;99.90;;;;;;4947330;28;20507;-74
2023/03/08 09:11:42;;;;;;;;;;;2.90;99.90;;;;;;4943103;28;19926;-75
2023/03/08 09:14:09;;;;;;;;;;;3.00;99.90;;;;;;4945589;28;19981;-74
2023/03/08 09:16:36;;;;;;;;;;;3.00;99.90;;;;;;4943587;28;19958;-74
2023/03/08 09:19:04;;;;;;;;;;;3.00;99.90;;;;;;4945996;28;19961;-74
2023/03/08 09:21:32;;;;;;;;;;;3.00;99.90;;;;;;4943409;28;19969;-74
2023/03/08 09:23:59;;;;;;;;;;;3.00;99.90;;;;;;4948764;28;19926;-74
2023/03/08 09:26:28;;;;;;;;;;;3.10;99.90;;;;;;4942832;28;19937;-74
2023/03/08 09:28:54;;;;;;;;;;;3.10;99.90;;;;;;4946896;28;19930;-74
2023/03/08 09:31:22;;;;;;;;;;;3.10;99.90;;;;;;4959561;28;19982;-74
2023/03/08 09:33:51;;;;;;;;;;;3.10;99.90;;;;;;4945381;28;19926;-74
2023/03/08 09:36:19;;;;;;;;;;;3.10;99.90;;;;;;4959772;28;20282;-74
2023/03/08 09:38:46;;;;;;;;;;;3.10;99.90;;;;;;4946949;28;19970;-74
2023/03/08 09:41:20;;;;;;;;;;;3.20;99.90;;;;;;4947035;28;19981;-74
2023/03/08 09:43:51;;;;;;;;;;;3.20;99.90;;;;;;4949682;28;19930;-74
2023/03/08 09:46:21;;;;;;;;;;;3.30;99.90;;;;;;4948082;28;19961;-75
2023/03/08 09:48:49;;;;;;;;;;;3.30;99.90;;;;;;4952236;28;19931;-75
2023/03/08 09:51:18;;;;;;;;;;;3.30;99.90;;;;;;4982901;28;19970;-74
2023/03/08 09:53:50;;;;;;;;;;;3.40;99.90;;;;;;4961018;28;19926;-74
2023/03/08 09:56:20;;;;;;;;;;;3.50;99.90;;;;;;4944293;28;19926;-74
2023/03/08 09:58:49;;;;;;;;;;;3.50;99.90;;;;;;4947860;28;19958;-74
2023/03/08 10:01:21;;;;;;;;;;;3.50;99.90;;;;;;4957964;28;20013;-74
2023/03/08 10:04:01;;;;;;;;;;;3.50;99.90;;;;;;4948918;28;19973;-74
2023/03/08 10:06:32;;;;;;;;;;;3.60;99.90;;;;;;4947542;28;20436;-75
2023/03/08 10:09:02;;;;;;;;;;;3.60;99.90;;;;;;4960041;28;19957;-74
2023/03/08 10:11:31;;;;;;;;;;;3.70;99.90;;;;;;4962526;28;20415;-75
2023/03/08 10:13:59;;;;;;;;;;;3.80;99.90;;;;;;4950047;28;19926;-74
2023/03/08 10:16:28;;;;;;;;;;;3.80;99.90;;;;;;4949092;28;19994;-74
2023/03/08 10:18:56;;;;;;;;;;;3.90;99.90;;;;;;4942851;28;19950;-74
2023/03/08 10:21:24;;;;;;;;;;;4.00;99.90;;;;;;4948812;28;19927;-74
2023/03/08 10:23:56;;;;;;;;;;;4.00;99.90;;;;;;4939095;28;20415;-75
2023/03/08 10:26:24;;;;;;;;;;;4.10;99.90;;;;;;4948613;28;19938;-74
2023/03/08 10:28:51;;;;;;;;;;;4.20;99.90;;;;;;4938517;28;19970;-75
2023/03/08 10:31:20;;;;;;;;;;;4.30;99.90;;;;;;4940036;28;19961;-76
2023/03/08 10:33:48;;;;;;;;;;;4.30;99.90;;;;;;4955112;28;19930;-76
2023/03/08 10:36:17;;;;;;;;;;;4.40;99.90;;;;;;4951850;28;20024;-76
2023/03/08 10:38:55;;;;;;;;;;;4.40;99.90;;;;;;4941896;28;20423;-77
2023/03/08 10:41:22;;;;;;;;;;;4.40;99.90;;;;;;4938905;28;20424;-75
2023/03/08 10:43:51;;;;;;;;;;;4.50;99.90;;;;;;4936824;28;20020;-76
2023/03/08 10:46:18;;;;;;;;;;;4.50;99.90;;;;;;4940882;28;19930;-75
2023/03/08 10:48:45;;;;;;;;;;;4.60;99.90;;;;;;4934258;28;19935;-74
2023/03/08 10:51:16;;;;;;;;;;;4.60;99.90;;;;;;4940135;28;19934;-77
2023/03/08 10:53:53;;;;;;;;;;;4.70;99.90;;;;;;4942309;28;19934;-75
2023/03/08 10:56:23;;;;;;;;;;;4.70;99.90;;;;;;4936463;28;19981;-77
2023/03/08 10:58:53;;;;;;;;;;;4.70;99.90;;;;;;4935744;28;19927;-75
2023/03/08 11:01:25;;;;;;;;;;;4.70;99.90;;;;;;4948409;28;19967;-74
2023/03/08 11:03:58;;;;;;;;;;;4.70;99.90;;;;;;4935961;28;20029;-74
2023/03/08 11:06:25;;;;;;;;;;;4.70;99.90;;;;;;4936799;28;19938;-74
2023/03/08 11:08:53;;;;;;;;;;;4.80;99.90;;;;;;4944477;28;19934;-75
2023/03/08 11:11:19;;;;;;;;;;;4.90;99.90;;;;;;4953223;28;19930;-75
2023/03/08 11:13:47;;;;;;;;;;;5.00;99.90;;;;;;4941123;28;20026;-76
2023/03/08 11:16:28;;;;;;;;;;;5.00;99.90;;;;;;4928264;28;20066;-74
2023/03/08 11:19:10;;;;;;;;;;;5.10;99.90;;;;;;4936355;28;19958;-74
2023/03/08 11:21:42;;;;;;;;;;;5.20;99.90;;;;;;4929282;28;20538;-74
2023/03/08 11:24:17;;;;;;;;;;;5.20;99.90;;;;;;4939841;28;20319;-74
2023/03/08 11:26:48;;;;;;;;;;;5.30;99.90;;;;;;4938651;28;20081;-74
2023/03/08 11:29:20;;;;;;;;;;;5.40;99.90;;;;;;4959597;28;19926;-76
2023/03/08 11:31:53;;;;;;;;;;;5.50;99.90;;;;;;4951225;28;19977;-75
2023/03/08 11:34:49;;;;;;;;;;;5.50;99.90;;;;;;4943882;28;19926;-76
2023/03/08 11:37:22;;;;;;;;;;;5.50;99.90;;;;;;4900238;29;20464;-75
2023/03/08 11:39:52;;;;;;;;;;;5.60;99.90;;;;;;4941440;28;19967;-76
2023/03/08 11:42:24;;;;;;;;;;;5.60;99.90;;;;;;4947973;28;19926;-75
2023/03/08 11:44:59;;;;;;;;;;;5.60;99.90;;;;;;4965433;28;19965;-76
2023/03/08 11:47:44;;;;;;;;;;;5.70;99.90;;;;;;4948829;28;19952;-76
2023/03/08 11:50:16;;;;;;;;;;;5.80;99.90;;;;;;4922184;28;19931;-76
2023/03/08 11:52:47;;;;;;;;;;;5.80;99.90;;;;;;4944467;28;19931;-75
2023/03/08 11:55:25;;;;;;;;;;;5.80;99.90;;;;;;4948162;28;19962;-74
2023/03/08 11:57:54;;;;;;;;;;;5.90;99.90;;;;;;4941653;28;19934;-77
2023/03/08 12:00:23;;;;;;;;;;;6.00;99.90;;;;;;4960568;28;20017;-76
2023/03/08 12:02:49;;;;;;;;;;;6.00;99.90;;;;;;4949937;28;19941;-76
2023/03/08 12:05:22;;;;;;;;;;;6.10;99.90;;;;;;4944087;28;19926;-75
2023/03/08 12:07:54;;;;;;;;;;;6.10;99.90;;;;;;4939016;28;20392;-76
2023/03/08 12:10:22;;;;;;;;;;;6.10;99.90;;;;;;4943900;28;19934;-78
2023/03/08 12:12:51;;;;;;;;;;;6.20;99.90;;;;;;4945683;28;20012;-78
2023/03/08 12:15:23;;;;;;;;;;;6.20;99.90;;;;;;4940580;28;20353;-77
2023/03/08 12:17:52;;;;;;;;;;;6.30;99.90;;;;;;4934051;28;20049;-75
2023/03/08 12:20:22;;;;;;;;;;;6.30;99.90;;;;;;4938141;28;20452;-75
2023/03/08 12:22:53;;;;;;;;;;;6.40;99.90;;;;;;4939815;28;19933;-77
2023/03/08 12:25:25;;;;;;;;;;;6.50;99.90;;;;;;4936195;28;19965;-75
2023/03/08 12:27:54;;;;;;;;;;;6.50;99.90;;;;;;4944572;28;19934;-75
2023/03/08 12:30:25;;;;;;;;;;;6.60;99.90;;;;;;4936010;28;19977;-77
2023/03/08 12:32:54;;;;;;;;;;;6.60;99.90;;;;;;4937001;28;19966;-75
2023/03/08 12:35:28;;;;;;;;;;;6.60;99.90;;;;;;4933373;28;20396;-75
2023/03/08 12:37:55;;;;;;;;;;;6.60;99.90;;;;;;4940185;28;19959;-75
2023/03/08 12:40:27;;;;;;;;;;;6.70;99.90;;;;;;4941169;28;20020;-77
2023/03/08 12:43:03;;;;;;;;;;;6.70;99.90;;;;;;4934903;28;19927;-75
2023/03/08 12:45:30;;;;;;;;;;;6.80;99.90;;;;;;4932299;28;19934;-76
2023/03/08 12:48:00;;;;;;;;;;;6.80;99.90;;;;;;4928751;28;19931;-74
2023/03/08 12:50:29;;;;;;;;;;;6.90;99.90;;;;;;4934532;28;19926;-75
2023/03/08 12:52:57;;;;;;;;;;;6.90;99.90;;;;;;4938094;28;19934;-76
2023/03/08 12:55:30;;;;;;;;;;;6.90;99.90;;;;;;4945151;28;19930;-76
2023/03/08 12:57:58;;;;;;;;;;;7.00;99.90;;;;;;4935090;28;19934;-74
2023/03/08 13:00:26;;;;;;;;;;;7.00;99.90;;;;;;4939994;28;19934;-75
2023/03/08 13:03:00;;;;;;;;;;;7.00;99.90;;;;;;4934766;28;19998;-74
2023/03/08 13:05:33;;;;;;;;;;;7.10;99.90;;;;;;4939336;28;19930;-75
2023/03/08 13:08:06;;;;;;;;;;;7.10;99.90;;;;;;4935863;28;19966;-77
2023/03/08 13:10:34;;;;;;;;;;;7.10;99.90;;;;;;4935857;28;20009;-75
2023/03/08 13:13:17;;;;;;;;;;;7.10;99.90;;;;;;4923395;28;19935;-78
2023/03/08 13:15:44;;;;;;;;;;;7.20;99.90;;;;;;4917941;28;19934;-75
2023/03/08 13:18:14;;;;;;;;;;;7.20;99.90;;;;;;4920905;28;19931;-77
2023/03/08 13:20:49;;;;;;;;;;;7.20;99.90;;;;;;4915166;28;20534;-73
2023/03/08 13:23:23;;;;;;;;;;;7.20;99.90;;;;;;4933380;28;19935;-73
2023/03/08 13:25:54;;;;;;;;;;;7.30;99.90;;;;;;4933260;28;20811;-74
2023/03/08 13:28:22;;;;;;;;;;;7.30;99.90;;;;;;4944108;28;19927;-74
2023/03/08 13:30:50;;;;;;;;;;;7.30;99.90;;;;;;4950290;28;19955;-75
2023/03/08 13:33:19;;;;;;;;;;;7.40;99.90;;;;;;4953872;28;19958;-75
2023/03/08 13:35:55;;;;;;;;;;;7.40;99.90;;;;;;4937100;28;20072;-74
2023/03/08 13:38:26;;;;;;;;;;;7.40;99.90;;;;;;4937012;28;20447;-74
2023/03/08 13:40:54;;;;;;;;;;;7.40;99.90;;;;;;4931140;28;19973;-74
2023/03/08 13:43:21;;;;;;;;;;;7.50;99.90;;;;;;4943220;28;19926;-73
2023/03/08 13:45:48;;;;;;;;;;;7.50;99.90;;;;;;4942151;28;20403;-74
2023/03/08 13:48:15;;;;;;;;;;;7.50;99.90;;;;;;4937231;28;19940;-75
2023/03/08 13:50:42;;;;;;;;;;;7.50;99.90;;;;;;4939707;28;19926;-72
2023/03/08 13:53:16;;;;;;;;;;;7.60;99.90;;;;;;4946525;28;19983;-75
2023/03/08 13:55:44;;;;;;;;;;;7.60;99.90;;;;;;4942363;28;19973;-74
2023/03/08 13:58:15;;;;;;;;;;;7.60;99.90;;;;;;4941977;28;19930;-76
2023/03/08 14:00:42;;;;;;;;;;;7.70;99.90;;;;;;4943133;28;20033;-75
2023/03/08 14:03:19;;;;;;;;;;;7.70;99.90;;;;;;4933087;28;19934;-76
2023/03/08 14:05:45;;;;;;;;;;;7.70;99.90;;;;;;4940427;28;19926;-77
2023/03/08 14:08:20;;;;;;;;;;;7.70;99.90;;;;;;4931678;28;20014;-75
2023/03/08 14:10:49;;;;;;;;;;;7.70;99.90;;;;;;4934957;28;19934;-75
2023/03/08 14:13:17;;;;;;;;;;;7.80;99.90;;;;;;4929249;28;20037;-77
2023/03/08 14:15:48;;;;;;;;;;;7.80;99.90;;;;;;4924128;28;20064;-75
2023/03/08 14:18:20;;;;;;;;;;;7.90;99.90;;;;;;4953507;28;20047;-73
2023/03/08 14:20:58;;;;;;;;;;;7.90;99.90;;;;;;4932243;28;19927;-77
2023/03/08 14:23:27;;;;;;;;;;;8.00;99.90;;;;;;4941274;28;19930;-75
2023/03/08 14:25:56;;;;;;;;;;;8.00;99.90;;;;;;4932717;28;19930;-75
2023/03/08 14:28:36;;;;;;;;;;;8.10;99.90;;;;;;4932231;28;19934;-75
2023/03/08 14:31:03;;;;;;;;;;;8.10;99.90;;;;;;4926833;28;20060;-77
2023/03/08 14:33:30;;;;;;;;;;;8.10;99.90;;;;;;4937802;28;20448;-75
2023/03/08 14:35:58;;;;;;;;;;;8.10;99.90;;;;;;4927634;28;20036;-76
2023/03/08 14:38:27;;;;;;;;;;;8.20;99.90;;;;;;4929274;28;19938;-77
2023/03/08 14:40:55;;;;;;;;;;;8.20;99.90;;;;;;4930091;28;20044;-77